createdAt,value
2017-05-02T00:02:23.981Z,57.90
2017-05-02T00:04:51.885Z,58.00
2017-05-02T00:07:19.720Z,58.10
2017-05-02T00:09:47.615Z,58.20
2017-05-02T00:12:16.487Z,58.30
2017-05-02T00:14:44.547Z,58.40
2017-05-02T00:17:13.122Z,58.50
2017-05-02T00:19:50.344Z,58.30
2017-05-02T00:22:18.458Z,58.20
2017-05-02T00:24:45.454Z,58.40
2017-05-02T00:27:13.475Z,58.50
2017-05-02T00:29:41.087Z,58.50
2017-05-02T00:32:09.259Z,58.50
2017-05-02T00:34:36.479Z,58.40
2017-05-02T00:37:03.495Z,58.50
2017-05-02T00:39:43.573Z,58.40
2017-05-02T00:42:11.188Z,58.30
2017-05-02T00:44:38.190Z,58.30
2017-05-02T00:47:05.394Z,58.30
2017-05-02T00:49:35.740Z,58.40
2017-05-02T00:54:56.890Z,58.80
2017-05-02T00:57:23.956Z,58.10
2017-05-02T00:59:51.952Z,58.30
2017-05-02T01:08:01.766Z,58.40
2017-05-02T01:16:16.267Z,58.30
2017-05-02T01:18:44.439Z,58.20
2017-05-02T01:21:13.227Z,58.30
2017-05-02T01:23:40.454Z,58.20
2017-05-02T01:26:09.368Z,58.20
2017-05-02T01:28:36.569Z,58.30
2017-05-02T01:31:03.698Z,58.50
2017-05-02T01:33:31.979Z,58.90
2017-05-02T01:35:59.151Z,59.00
2017-05-02T01:38:27.011Z,59.20
2017-05-02T01:40:54.509Z,59.40
2017-05-02T01:43:23.253Z,60.80
2017-05-02T01:45:50.266Z,60.30
2017-05-02T01:48:17.284Z,60.10
2017-05-02T01:50:44.614Z,60.20
2017-05-02T01:53:11.642Z,61.40
2017-05-02T01:55:40.232Z,61.00
2017-05-02T02:00:39.923Z,60.50
2017-05-02T02:03:07.727Z,60.30
2017-05-02T02:08:28.900Z,60.70
2017-05-02T02:11:13.280Z,61.90
2017-05-02T02:13:40.459Z,61.40
2017-05-02T02:16:07.849Z,61.50
2017-05-02T02:18:35.259Z,61.30
2017-05-02T02:21:02.495Z,61.50
2017-05-02T02:26:43.579Z,62.40
2017-05-02T02:29:11.444Z,62.70
2017-05-02T02:31:39.206Z,63.50
2017-05-02T02:34:06.326Z,63.20
2017-05-02T02:36:55.558Z,63.70
2017-05-02T02:39:22.711Z,64.00
2017-05-02T02:41:50.094Z,64.00
2017-05-02T02:44:17.090Z,64.60
2017-05-02T02:46:45.330Z,64.40
2017-05-02T02:49:12.333Z,64.80
2017-05-02T02:51:39.343Z,64.80
2017-05-02T02:54:07.083Z,64.70
2017-05-02T02:56:34.099Z,64.80
2017-05-02T03:01:55.271Z,65.40
2017-05-02T03:04:24.108Z,66.00
2017-05-02T03:06:51.471Z,65.70
2017-05-02T03:09:18.499Z,65.70
2017-05-02T03:11:46.069Z,65.50
2017-05-02T03:14:38.006Z,66.40
2017-05-02T03:17:05.017Z,65.70
2017-05-02T03:19:32.151Z,65.60
2017-05-02T03:22:00.404Z,65.80
2017-05-02T03:24:27.883Z,65.90
2017-05-02T03:26:55.791Z,66.20
2017-05-02T03:29:22.808Z,66.00
2017-05-02T03:31:49.839Z,65.90
2017-05-02T03:34:17.836Z,66.60
2017-05-02T03:36:44.949Z,66.20
2017-05-02T03:39:12.398Z,66.40
2017-05-02T03:41:39.868Z,67.40
2017-05-02T03:44:06.892Z,67.80
2017-05-02T03:46:35.368Z,67.80
2017-05-02T03:51:52.572Z,67.30
2017-05-02T03:54:19.653Z,66.80
2017-05-02T03:56:47.303Z,66.60
2017-05-02T03:59:14.415Z,66.40
2017-05-02T04:01:41.440Z,66.40
2017-05-02T04:04:08.934Z,66.30
2017-05-02T04:06:36.208Z,66.20
2017-05-02T04:09:04.256Z,66.20
2017-05-02T04:11:31.352Z,66.50
2017-05-02T04:13:59.813Z,66.30
2017-05-02T04:16:26.891Z,66.40
2017-05-02T04:18:55.857Z,66.30
2017-05-02T04:21:22.866Z,66.40
2017-05-02T04:23:50.364Z,66.30
2017-05-02T04:26:17.362Z,66.40
2017-05-02T04:28:45.448Z,66.40
2017-05-02T04:31:12.514Z,66.60
2017-05-02T04:33:39.720Z,67.10
2017-05-02T04:36:06.879Z,67.20
2017-05-02T04:38:33.895Z,67.60
2017-05-02T04:41:01.784Z,67.90
2017-05-02T04:43:29.150Z,68.30
2017-05-02T04:45:56.398Z,68.90
2017-05-02T04:48:23.499Z,72.40
2017-05-02T04:50:50.460Z,72.50
2017-05-02T04:53:17.724Z,73.20
2017-05-02T04:55:44.720Z,73.10
2017-05-02T04:58:11.759Z,73.20
2017-05-02T05:00:38.908Z,73.30
2017-05-02T05:03:06.952Z,73.50
2017-05-02T05:05:34.219Z,73.90
2017-05-02T05:08:01.203Z,74.30
2017-05-02T05:10:29.642Z,74.60
2017-05-02T05:12:56.954Z,74.30
2017-05-02T05:15:24.680Z,74.60
2017-05-02T05:17:52.411Z,74.60
2017-05-02T05:20:19.461Z,74.80
2017-05-02T05:22:47.537Z,75.10
2017-05-02T05:25:14.556Z,74.70
2017-05-02T05:27:41.529Z,74.80
2017-05-02T05:30:09.574Z,75.60
2017-05-02T05:32:43.537Z,76.10
2017-05-02T05:35:10.578Z,76.30
2017-05-02T05:37:38.056Z,76.10
2017-05-02T05:40:05.808Z,76.30
2017-05-02T05:42:32.873Z,75.50
2017-05-02T05:44:59.925Z,76.00
2017-05-02T05:47:27.778Z,75.80
2017-05-02T05:49:55.568Z,75.70
2017-05-02T05:52:22.610Z,75.60
2017-05-02T05:54:50.296Z,75.70
2017-05-02T05:57:17.412Z,75.10
2017-05-02T06:02:53.210Z,75.10
2017-05-02T06:05:21.345Z,75.20
2017-05-02T06:07:48.388Z,75.30
2017-05-02T06:10:16.175Z,75.00
2017-05-02T06:12:43.190Z,75.60
2017-05-02T06:15:10.918Z,75.00
2017-05-02T06:17:38.121Z,74.70
2017-05-02T06:20:05.852Z,74.40
2017-05-02T06:22:32.832Z,74.20
2017-05-02T06:25:00.185Z,74.30
2017-05-02T06:27:28.731Z,74.30
2017-05-02T06:29:55.898Z,74.00
2017-05-02T06:32:22.967Z,73.90
2017-05-02T06:34:49.986Z,73.70
2017-05-02T06:37:16.979Z,73.40
2017-05-02T06:39:43.985Z,72.80
2017-05-02T06:42:10.984Z,72.50
2017-05-02T06:44:37.979Z,72.90
2017-05-02T06:47:05.759Z,72.10
2017-05-02T06:49:32.740Z,72.20
2017-05-02T06:51:59.735Z,72.80
2017-05-02T06:54:27.584Z,72.30
2017-05-02T06:56:54.614Z,71.80
2017-05-02T06:59:21.661Z,71.40
2017-05-02T07:01:48.726Z,69.70
2017-05-02T07:04:15.714Z,71.00
2017-05-02T07:06:43.873Z,71.40
2017-05-02T07:09:10.875Z,70.30
2017-05-02T07:11:37.844Z,69.10
2017-05-02T07:14:04.844Z,67.80
2017-05-02T07:16:31.970Z,66.90
2017-05-02T07:18:58.957Z,66.80
2017-05-02T07:21:25.926Z,67.00
2017-05-02T07:23:53.691Z,66.00
2017-05-02T07:26:21.484Z,65.00
2017-05-02T07:28:48.999Z,64.70
2017-05-02T07:33:50.778Z,57.70
2017-05-02T07:36:17.781Z,58.80
2017-05-02T07:38:44.895Z,56.10
2017-05-02T07:41:11.997Z,53.20
2017-05-02T07:43:39.015Z,51.70
2017-05-02T07:46:13.940Z,44.90
2017-05-02T07:51:26.501Z,39.30
2017-05-02T08:28:40.526Z,37.90
2017-05-02T08:31:07.835Z,38.00
2017-05-02T08:33:34.922Z,40.00
2017-05-02T08:36:02.006Z,41.70
2017-05-02T08:38:29.020Z,43.70
2017-05-02T08:40:56.019Z,44.80
2017-05-02T08:43:23.484Z,45.40
2017-05-02T08:45:51.371Z,46.70
2017-05-02T08:48:18.406Z,48.00
2017-05-02T08:50:45.474Z,49.60
2017-05-02T08:53:12.474Z,50.20
2017-05-02T08:55:39.536Z,50.90
2017-05-02T08:58:06.531Z,51.50
2017-05-02T09:00:33.575Z,53.20
2017-05-02T09:03:00.633Z,53.10
2017-05-02T09:05:27.624Z,53.90
2017-05-02T09:07:54.729Z,54.10
2017-05-02T09:10:21.797Z,54.40
2017-05-02T09:12:48.783Z,55.00
2017-05-02T09:15:16.700Z,55.90
2017-05-02T09:17:43.766Z,55.00
2017-05-02T09:20:10.794Z,55.30
2017-05-02T09:22:38.070Z,55.20
2017-05-02T09:25:05.819Z,56.70
2017-05-02T09:27:32.810Z,56.40
2017-05-02T09:30:00.622Z,56.60
2017-05-02T09:32:27.663Z,56.80
2017-05-02T09:34:54.652Z,57.20
2017-05-02T09:37:22.573Z,57.20
2017-05-02T09:39:49.607Z,57.30
2017-05-02T09:42:16.626Z,57.50
2017-05-02T09:44:43.786Z,57.90
2017-05-02T09:47:15.094Z,58.20
2017-05-02T09:49:42.824Z,57.40
2017-05-02T09:52:09.819Z,56.80
2017-05-02T09:54:37.568Z,55.80
2017-05-02T09:57:05.335Z,55.50
2017-05-02T09:59:33.084Z,55.90
2017-05-02T10:02:00.124Z,55.60
2017-05-02T10:04:27.622Z,55.00
2017-05-02T10:06:55.688Z,54.20
2017-05-02T10:09:22.713Z,54.00
2017-05-02T10:11:50.466Z,54.20
2017-05-02T10:14:18.030Z,54.90
2017-05-02T10:16:48.825Z,55.50
2017-05-02T10:19:19.255Z,56.30
2017-05-02T10:21:46.264Z,56.30
2017-05-02T10:24:13.315Z,56.40
2017-05-02T10:26:40.332Z,56.10
2017-05-02T10:29:07.460Z,55.60
2017-05-02T10:31:34.473Z,55.80
2017-05-02T10:34:01.972Z,55.80
2017-05-02T10:36:28.988Z,55.80
2017-05-02T10:38:56.006Z,55.60
2017-05-02T10:41:23.020Z,55.80
2017-05-02T10:43:50.067Z,55.70
2017-05-02T10:46:17.095Z,55.90
2017-05-02T10:48:44.078Z,56.20
2017-05-02T10:51:11.331Z,56.70
2017-05-02T10:53:38.771Z,56.80
2017-05-02T10:56:06.546Z,56.50
2017-05-02T10:58:33.645Z,55.90
2017-05-02T11:01:00.667Z,55.20
2017-05-02T11:03:27.734Z,54.90
2017-05-02T11:05:54.799Z,54.70
2017-05-02T11:08:22.181Z,54.80
2017-05-02T11:10:50.770Z,54.70
2017-05-02T11:13:17.838Z,55.00
2017-05-02T11:15:44.899Z,55.40
2017-05-02T11:18:11.940Z,55.30
2017-05-02T11:20:39.020Z,55.20
2017-05-02T11:23:06.102Z,55.10
2017-05-02T11:25:33.896Z,55.10
2017-05-02T11:28:00.936Z,54.90
2017-05-02T11:30:28.009Z,55.80
2017-05-02T11:32:55.096Z,56.70
2017-05-02T11:35:22.889Z,57.00
2017-05-02T11:37:50.414Z,56.60
2017-05-02T11:40:17.414Z,56.50
2017-05-02T11:42:44.426Z,55.10
2017-05-02T11:45:12.163Z,54.40
2017-05-02T11:47:39.193Z,54.10
2017-05-02T11:50:07.327Z,53.80
2017-05-02T11:52:34.347Z,53.20
2017-05-02T11:55:01.521Z,53.20
2017-05-02T11:57:28.561Z,52.60
2017-05-02T11:59:55.615Z,51.90
2017-05-02T12:02:22.633Z,52.10
2017-05-02T12:04:50.426Z,52.00
2017-05-02T12:07:17.473Z,51.90
2017-05-02T12:09:45.359Z,51.20
2017-05-02T12:12:13.316Z,50.50
2017-05-02T12:14:40.387Z,51.10
2017-05-02T12:17:07.404Z,51.40
2017-05-02T12:19:34.453Z,51.50
2017-05-02T12:22:01.581Z,51.60
2017-05-02T12:24:28.619Z,51.70
2017-05-02T12:26:56.391Z,51.40
2017-05-02T12:29:23.404Z,51.30
2017-05-02T12:31:50.423Z,48.70
2017-05-02T12:34:17.507Z,47.90
2017-05-02T12:36:44.524Z,48.60
2017-05-02T12:39:12.656Z,49.00
2017-05-02T12:41:39.655Z,48.90
2017-05-02T12:44:06.768Z,47.20
2017-05-02T12:46:33.762Z,47.50
2017-05-02T12:49:00.742Z,47.10
2017-05-02T12:51:27.747Z,47.80
2017-05-02T12:53:54.745Z,48.30
2017-05-02T12:56:21.765Z,47.90
2017-05-02T12:58:49.527Z,48.30
2017-05-02T13:01:19.185Z,47.20
2017-05-02T13:03:46.280Z,47.90
2017-05-02T13:06:13.351Z,48.20
2017-05-02T13:08:40.410Z,48.30
2017-05-02T13:11:07.415Z,49.20
2017-05-02T13:13:35.540Z,50.60
2017-05-02T13:16:02.604Z,50.00
2017-05-02T13:18:29.603Z,50.80
2017-05-02T13:20:56.751Z,50.10
2017-05-02T13:40:46.613Z,49.10
2017-05-02T13:43:14.397Z,49.40
2017-05-02T13:45:41.440Z,49.70
2017-05-02T13:48:08.749Z,48.70
2017-05-02T13:50:37.084Z,48.30
2017-05-02T13:53:04.090Z,48.90
2017-05-02T13:55:31.952Z,49.40
2017-05-02T13:57:59.723Z,48.20
2017-05-02T14:00:31.575Z,47.50
2017-05-02T14:02:58.672Z,47.50
2017-05-02T14:05:26.097Z,48.80
2017-05-02T14:07:53.907Z,49.70
2017-05-02T14:10:20.967Z,49.90
2017-05-02T14:12:48.022Z,51.10
2017-05-02T14:15:15.068Z,52.40
2017-05-02T14:17:42.916Z,52.40
2017-05-02T14:20:09.988Z,52.10
2017-05-02T14:22:37.043Z,52.20
2017-05-02T14:25:04.447Z,52.00
2017-05-02T14:27:31.977Z,52.20
2017-05-02T14:30:00.656Z,51.60
2017-05-02T14:32:28.450Z,50.10
2017-05-02T14:34:55.502Z,49.60
2017-05-02T14:37:29.008Z,49.00
2017-05-02T14:39:56.486Z,49.70
2017-05-02T14:42:23.596Z,49.60
2017-05-02T14:44:51.141Z,49.80
2017-05-02T14:47:19.972Z,50.70
2017-05-02T14:49:47.276Z,50.00
2017-05-02T14:52:15.039Z,50.20
2017-05-02T14:54:43.162Z,51.40
2017-05-02T14:57:11.202Z,50.10
2017-05-02T14:59:39.990Z,48.90
2017-05-02T15:02:07.486Z,48.70
2017-05-02T15:04:34.686Z,48.80
2017-05-02T15:07:01.883Z,49.00
2017-05-02T15:09:28.960Z,49.40
2017-05-02T15:12:01.041Z,50.00
2017-05-02T15:14:29.214Z,49.50
2017-05-02T15:17:03.111Z,49.30
2017-05-02T15:19:30.275Z,48.70
2017-05-02T15:21:58.880Z,48.70
2017-05-02T15:24:25.970Z,48.90
2017-05-02T15:26:53.396Z,48.70
2017-05-02T15:29:21.697Z,49.30
2017-05-02T15:31:49.699Z,49.00
2017-05-02T15:34:19.002Z,49.40
2017-05-02T15:36:46.112Z,49.50
2017-05-02T15:39:13.380Z,50.00
2017-05-02T15:41:41.187Z,50.50
2017-05-02T15:44:09.790Z,50.90
2017-05-02T15:46:36.873Z,50.50
2017-05-02T15:49:03.995Z,50.60
2017-05-02T15:51:31.095Z,51.40
2017-05-02T15:53:58.320Z,51.30
2017-05-02T15:56:25.515Z,51.20
2017-05-02T15:58:52.651Z,51.70
2017-05-02T16:01:19.737Z,51.40
2017-05-02T16:03:47.324Z,51.10
2017-05-02T16:06:14.816Z,51.30
2017-05-02T16:08:41.910Z,51.90
2017-05-02T16:40:43.164Z,53.60
2017-05-02T16:43:14.621Z,53.70
2017-05-02T16:45:41.782Z,53.60
2017-05-02T16:48:09.820Z,53.50
2017-05-02T16:50:36.899Z,54.20
2017-05-02T16:53:04.883Z,54.60
2017-05-02T16:55:32.163Z,54.20
2017-05-02T16:57:59.611Z,54.50
2017-05-02T17:00:26.951Z,54.70
2017-05-02T17:02:54.082Z,54.40
2017-05-02T17:05:21.437Z,54.60
2017-05-02T17:07:48.634Z,54.70
2017-05-02T17:10:15.855Z,54.20
2017-05-02T17:12:43.035Z,54.80
2017-05-02T17:15:10.402Z,54.90
2017-05-02T17:17:37.848Z,54.90
2017-05-02T17:20:05.123Z,55.10
2017-05-02T17:22:32.957Z,55.40
2017-05-02T17:25:00.051Z,55.00
2017-05-02T17:27:31.209Z,54.60
2017-05-02T17:29:58.975Z,54.50
2017-05-02T17:32:28.227Z,54.30
2017-05-02T17:34:55.393Z,54.30
2017-05-02T17:37:22.919Z,54.70
2017-05-02T17:39:50.075Z,54.50
2017-05-02T17:42:17.334Z,54.60
2017-05-02T17:44:46.087Z,54.90
2017-05-02T17:47:13.231Z,55.10
2017-05-02T17:49:40.394Z,56.20
2017-05-02T17:52:07.477Z,56.60
2017-05-02T17:54:35.396Z,57.80
2017-05-02T17:57:02.966Z,58.00
2017-05-02T17:59:30.650Z,58.60
2017-05-02T18:01:58.885Z,58.80
2017-05-02T18:04:27.100Z,58.90
2017-05-02T18:06:54.881Z,59.00
2017-05-02T18:09:22.726Z,59.00
2017-05-02T18:11:51.756Z,59.50
2017-05-02T18:14:18.857Z,59.60
2017-05-02T18:16:45.968Z,59.90
2017-05-02T18:19:15.016Z,60.30
2017-05-02T18:21:45.285Z,60.80
2017-05-02T18:24:12.400Z,61.20
2017-05-02T18:26:40.229Z,61.50
2017-05-02T18:29:07.289Z,61.60
2017-05-02T18:31:34.605Z,61.80
2017-05-02T18:34:01.646Z,61.90
2017-05-02T18:36:30.258Z,62.10
2017-05-02T18:38:57.491Z,62.10
2017-05-02T18:41:24.640Z,62.10
2017-05-02T18:43:51.740Z,62.40
2017-05-02T18:46:18.829Z,61.70
2017-05-02T18:48:45.918Z,62.50
2017-05-02T18:51:13.069Z,62.80
2017-05-02T18:53:41.026Z,62.30
2017-05-02T18:56:09.106Z,62.00
2017-05-02T18:58:36.147Z,62.80
2017-05-02T19:01:03.199Z,62.30
2017-05-02T19:03:30.328Z,63.00
2017-05-02T19:06:00.376Z,62.30
2017-05-02T19:08:27.446Z,62.80
2017-05-02T19:10:54.557Z,62.30
2017-05-02T19:13:21.835Z,62.00
2017-05-02T19:15:48.915Z,61.80
2017-05-02T19:18:16.840Z,61.90
2017-05-02T19:20:44.662Z,61.90
2017-05-02T19:23:11.929Z,62.00
2017-05-02T19:25:39.768Z,61.90
2017-05-02T19:28:08.334Z,61.80
2017-05-02T19:30:35.474Z,62.00
2017-05-02T19:33:04.327Z,62.00
2017-05-02T19:35:31.413Z,64.00
2017-05-02T19:37:58.544Z,63.70
2017-05-02T19:40:26.459Z,63.80
2017-05-02T19:42:53.510Z,64.00
2017-05-02T19:45:20.558Z,66.00
2017-05-02T19:47:47.655Z,66.80
2017-05-02T19:50:15.508Z,67.20
2017-05-02T19:52:42.715Z,67.40
2017-05-02T19:55:10.025Z,67.60
2017-05-02T19:57:37.959Z,67.60
2017-05-02T20:00:05.392Z,67.80
2017-05-02T20:02:32.596Z,67.80
2017-05-02T20:04:59.899Z,68.00
2017-05-02T20:07:27.165Z,68.10
2017-05-02T20:09:54.500Z,68.10
2017-05-02T20:12:22.039Z,67.90
2017-05-02T20:14:49.344Z,67.90
2017-05-02T20:17:17.705Z,68.00
2017-05-02T20:19:45.079Z,68.00
2017-05-02T20:25:18.140Z,68.40
2017-05-02T20:27:45.561Z,68.50
2017-05-02T20:30:13.094Z,69.50
2017-05-02T20:32:42.460Z,68.80
2017-05-02T20:35:11.884Z,69.10
2017-05-02T20:37:39.008Z,69.20
2017-05-02T20:40:06.101Z,69.40
2017-05-02T20:42:33.227Z,69.60
2017-05-02T20:45:02.326Z,69.80
2017-05-02T20:47:29.676Z,69.80
2017-05-02T20:49:56.846Z,70.10
2017-05-02T20:52:24.182Z,70.10
2017-05-02T20:54:51.477Z,70.30
2017-05-02T20:57:18.625Z,70.50
2017-05-02T20:59:45.671Z,70.40
2017-05-02T21:02:12.733Z,70.60
2017-05-02T21:04:40.531Z,70.60
2017-05-02T21:07:07.659Z,70.80
2017-05-02T21:09:34.784Z,70.80
2017-05-02T21:12:01.812Z,70.60
2017-05-02T21:14:29.604Z,71.40
2017-05-02T21:16:56.686Z,71.50
2017-05-02T21:19:25.065Z,71.60
2017-05-02T21:21:52.150Z,71.60
2017-05-02T21:24:19.954Z,71.60
2017-05-02T21:26:47.039Z,71.60
2017-05-02T21:29:14.072Z,71.60
2017-05-02T21:31:41.072Z,71.60
2017-05-02T21:34:08.596Z,71.70
2017-05-02T21:36:35.666Z,71.60
2017-05-02T21:39:02.690Z,71.60
2017-05-02T21:41:29.866Z,71.50
2017-05-02T21:43:57.672Z,71.40
2017-05-02T21:46:24.683Z,71.40
2017-05-02T21:48:52.003Z,71.30
2017-05-02T21:51:19.100Z,71.30
2017-05-02T21:53:46.238Z,71.30
2017-05-02T21:56:14.266Z,71.10
2017-05-02T21:58:41.306Z,70.80
2017-05-02T22:01:08.374Z,70.60
2017-05-02T22:03:35.822Z,70.30
2017-05-02T22:06:02.854Z,69.90
2017-05-02T22:08:29.898Z,69.80
2017-05-02T22:10:56.985Z,69.50
2017-05-02T22:13:24.845Z,69.30
2017-05-02T22:15:52.417Z,69.10
2017-05-02T22:18:19.480Z,69.10
2017-05-02T22:20:46.506Z,69.00
2017-05-02T22:23:14.266Z,68.80
2017-05-02T22:25:42.054Z,68.70
2017-05-02T22:30:41.831Z,68.60
2017-05-02T22:33:08.852Z,68.50
2017-05-02T22:35:35.837Z,68.50
2017-05-02T22:38:04.000Z,69.30
2017-05-02T22:40:30.977Z,68.30
2017-05-02T22:42:57.990Z,68.50
2017-05-02T22:45:25.006Z,68.50
2017-05-02T22:47:52.003Z,68.40
2017-05-02T22:50:19.063Z,68.40
2017-05-02T22:52:47.455Z,68.50
2017-05-02T22:55:14.455Z,68.60
2017-05-02T22:57:41.471Z,68.50
2017-05-02T23:00:08.474Z,68.80
2017-05-02T23:02:35.482Z,69.60
2017-05-02T23:05:02.478Z,68.80
2017-05-02T23:07:30.492Z,69.60
2017-05-02T23:09:57.437Z,68.90
2017-05-02T23:12:24.430Z,69.00
2017-05-02T23:14:51.501Z,68.80
2017-05-02T23:17:18.458Z,68.50
2017-05-02T23:19:45.439Z,68.40
2017-05-02T23:22:12.431Z,68.70
2017-05-02T23:24:39.391Z,68.50
2017-05-02T23:27:07.272Z,68.50
2017-05-02T23:29:34.242Z,68.50
2017-05-02T23:32:01.924Z,68.70
2017-05-02T23:34:28.954Z,68.90
2017-05-02T23:36:56.669Z,69.10
2017-05-02T23:39:24.063Z,69.40
2017-05-02T23:41:51.113Z,69.70
2017-05-02T23:44:18.836Z,69.80
2017-05-02T23:46:45.857Z,70.00
2017-05-02T23:49:12.898Z,70.10
2017-05-02T23:51:39.866Z,70.30
2017-05-02T23:54:06.840Z,70.50
2017-05-02T23:56:33.883Z,70.40
2017-05-02T23:59:00.886Z,70.40
